sensor_id;sensor_type;location;lat;lon;timestamp;temperature;humidity
65637;DHT22;52327;42.622;23.316;2023-04-06T00:00:58;-0.48;86.02
65637;DHT22;52327;42.622;23.316;2023-04-06T00:03:24;-0.47;86.55
65637;DHT22;52327;42.622;23.316;2023-04-06T00:05:50;-0.58;86.36
65637;DHT22;52327;42.622;23.316;2023-04-06T00:08:15;-0.59;86.68
65637;DHT22;52327;42.622;23.316;2023-04-06T00:10:41;-0.61;86.73
65637;DHT22;52327;42.622;23.316;2023-04-06T00:13:07;-0.61;86.81
65637;DHT22;52327;42.622;23.316;2023-04-06T00:15:33;-0.61;87.12
65637;DHT22;52327;42.622;23.316;2023-04-06T00:17:59;-0.64;86.17
65637;DHT22;52327;42.622;23.316;2023-04-06T00:20:24;-0.79;85.82
65637;DHT22;52327;42.622;23.316;2023-04-06T00:22:50;-0.86;85.85
65637;DHT22;52327;42.622;23.316;2023-04-06T00:25:17;-0.83;86.23
65637;DHT22;52327;42.622;23.316;2023-04-06T00:27:42;-0.83;86.79
65637;DHT22;52327;42.622;23.316;2023-04-06T00:30:08;-0.80;86.99
65637;DHT22;52327;42.622;23.316;2023-04-06T00:32:34;-0.85;87.22
65637;DHT22;52327;42.622;23.316;2023-04-06T00:35:02;-0.85;87.14
65637;DHT22;52327;42.622;23.316;2023-04-06T00:37:28;-0.85;87.59
65637;DHT22;52327;42.622;23.316;2023-04-06T00:39:53;-0.86;87.11
65637;DHT22;52327;42.622;23.316;2023-04-06T00:42:20;-0.78;86.37
65637;DHT22;52327;42.622;23.316;2023-04-06T00:44:54;-0.85;86.22
65637;DHT22;52327;42.622;23.316;2023-04-06T00:47:21;-0.86;86.80
65637;DHT22;52327;42.622;23.316;2023-04-06T00:49:47;-0.85;86.30
65637;DHT22;52327;42.622;23.316;2023-04-06T00:52:13;-0.89;86.64
65637;DHT22;52327;42.622;23.316;2023-04-06T00:54:38;-0.89;86.76
65637;DHT22;52327;42.622;23.316;2023-04-06T00:57:04;-0.89;86.12
65637;DHT22;52327;42.622;23.316;2023-04-06T00:59:29;-1.23;86.58
65637;DHT22;52327;42.622;23.316;2023-04-06T01:01:55;-1.30;85.81
65637;DHT22;52327;42.622;23.316;2023-04-06T01:04:21;-1.29;85.30
65637;DHT22;52327;42.622;23.316;2023-04-06T01:06:48;-1.23;85.35
65637;DHT22;52327;42.622;23.316;2023-04-06T01:09:14;-1.10;84.96
65637;DHT22;52327;42.622;23.316;2023-04-06T01:11:40;-1.06;84.15
65637;DHT22;52327;42.622;23.316;2023-04-06T01:14:06;-1.03;81.73
65637;DHT22;52327;42.622;23.316;2023-04-06T01:16:31;-1.04;84.21
65637;DHT22;52327;42.622;23.316;2023-04-06T01:18:57;-1.04;83.03
65637;DHT22;52327;42.622;23.316;2023-04-06T01:21:22;-1.09;83.44
65637;DHT22;52327;42.622;23.316;2023-04-06T01:23:48;-1.23;82.62
65637;DHT22;52327;42.622;23.316;2023-04-06T01:26:13;-1.36;82.96
65637;DHT22;52327;42.622;23.316;2023-04-06T01:28:39;-1.21;84.82
65637;DHT22;52327;42.622;23.316;2023-04-06T01:31:06;-1.17;83.23
65637;DHT22;52327;42.622;23.316;2023-04-06T01:33:32;-1.09;83.74
65637;DHT22;52327;42.622;23.316;2023-04-06T01:35:58;-1.00;83.81
65637;DHT22;52327;42.622;23.316;2023-04-06T01:38:23;-1.07;81.48
65637;DHT22;52327;42.622;23.316;2023-04-06T01:40:49;-0.99;82.96
65637;DHT22;52327;42.622;23.316;2023-04-06T01:43:15;-0.95;81.08
65637;DHT22;52327;42.622;23.316;2023-04-06T01:45:41;-0.99;82.36
65637;DHT22;52327;42.622;23.316;2023-04-06T01:48:07;-1.14;80.30
65637;DHT22;52327;42.622;23.316;2023-04-06T01:50:32;-1.14;80.78
65637;DHT22;52327;42.622;23.316;2023-04-06T01:52:58;-1.13;80.27
65637;DHT22;52327;42.622;23.316;2023-04-06T01:55:23;-1.10;81.09
65637;DHT22;52327;42.622;23.316;2023-04-06T01:57:49;-1.07;82.99
65637;DHT22;52327;42.622;23.316;2023-04-06T02:00:15;-1.11;81.58
65637;DHT22;52327;42.622;23.316;2023-04-06T02:02:41;-1.34;80.14
65637;DHT22;52327;42.622;23.316;2023-04-06T02:05:07;-1.27;80.59
65637;DHT22;52327;42.622;23.316;2023-04-06T02:07:33;-1.20;78.48
65637;DHT22;52327;42.622;23.316;2023-04-06T02:09:58;-1.24;80.67
65637;DHT22;52327;42.622;23.316;2023-04-06T02:12:24;-1.27;80.10
65637;DHT22;52327;42.622;23.316;2023-04-06T02:14:49;-1.30;79.33
65637;DHT22;52327;42.622;23.316;2023-04-06T02:17:15;-1.29;78.74
65637;DHT22;52327;42.622;23.316;2023-04-06T02:19:40;-1.31;79.57
65637;DHT22;52327;42.622;23.316;2023-04-06T02:22:06;-1.23;80.04
65637;DHT22;52327;42.622;23.316;2023-04-06T02:24:31;-1.19;79.65
65637;DHT22;52327;42.622;23.316;2023-04-06T02:26:57;-1.20;80.05
65637;DHT22;52327;42.622;23.316;2023-04-06T02:29:22;-1.07;80.07
65637;DHT22;52327;42.622;23.316;2023-04-06T02:31:48;-1.16;79.65
65637;DHT22;52327;42.622;23.316;2023-04-06T02:34:13;-1.04;79.90
65637;DHT22;52327;42.622;23.316;2023-04-06T02:36:46;-0.96;79.45
65637;DHT22;52327;42.622;23.316;2023-04-06T02:39:13;-0.83;79.12
65637;DHT22;52327;42.622;23.316;2023-04-06T02:41:39;-0.96;78.38
65637;DHT22;52327;42.622;23.316;2023-04-06T02:44:07;-1.03;79.01
65637;DHT22;52327;42.622;23.316;2023-04-06T02:46:34;-1.06;78.98
65637;DHT22;52327;42.622;23.316;2023-04-06T02:48:59;-0.89;81.03
65637;DHT22;52327;42.622;23.316;2023-04-06T02:51:26;-0.72;78.92
65637;DHT22;52327;42.622;23.316;2023-04-06T02:53:52;-0.83;77.98
65637;DHT22;52327;42.622;23.316;2023-04-06T02:56:17;-0.64;78.32
65637;DHT22;52327;42.622;23.316;2023-04-06T02:58:43;-0.58;78.77
65637;DHT22;52327;42.622;23.316;2023-04-06T03:01:08;-0.62;78.25
65637;DHT22;52327;42.622;23.316;2023-04-06T03:03:34;-0.69;75.77
65637;DHT22;52327;42.622;23.316;2023-04-06T03:05:59;-0.65;79.04
65637;DHT22;52327;42.622;23.316;2023-04-06T03:08:25;-0.68;78.95
65637;DHT22;52327;42.622;23.316;2023-04-06T03:10:51;-0.75;77.48
65637;DHT22;52327;42.622;23.316;2023-04-06T03:13:16;-0.78;77.97
65637;DHT22;52327;42.622;23.316;2023-04-06T03:15:41;-0.89;78.30
65637;DHT22;52327;42.622;23.316;2023-04-06T03:18:07;-0.97;77.95
65637;DHT22;52327;42.622;23.316;2023-04-06T03:20:33;-1.06;77.60
65637;DHT22;52327;42.622;23.316;2023-04-06T03:22:58;-1.13;78.04
65637;DHT22;52327;42.622;23.316;2023-04-06T03:25:24;-1.17;78.97
65637;DHT22;52327;42.622;23.316;2023-04-06T03:27:49;-1.14;78.40
65637;DHT22;52327;42.622;23.316;2023-04-06T03:30:15;-1.19;78.50
65637;DHT22;52327;42.622;23.316;2023-04-06T03:32:43;-1.21;79.00
65637;DHT22;52327;42.622;23.316;2023-04-06T03:35:09;-1.24;77.66
65637;DHT22;52327;42.622;23.316;2023-04-06T03:37:34;-1.24;78.67
65637;DHT22;52327;42.622;23.316;2023-04-06T03:40:00;-1.24;78.95
65637;DHT22;52327;42.622;23.316;2023-04-06T03:42:26;-1.27;77.88
65637;DHT22;52327;42.622;23.316;2023-04-06T03:44:52;-1.26;78.56
65637;DHT22;52327;42.622;23.316;2023-04-06T03:47:17;-1.33;79.05
65637;DHT22;52327;42.622;23.316;2023-04-06T03:49:43;-1.30;78.05
65637;DHT22;52327;42.622;23.316;2023-04-06T03:52:08;-1.37;77.98
65637;DHT22;52327;42.622;23.316;2023-04-06T03:54:33;-1.30;77.42
65637;DHT22;52327;42.622;23.316;2023-04-06T03:56:59;-1.23;78.25
65637;DHT22;52327;42.622;23.316;2023-04-06T03:59:25;-1.16;78.66
65637;DHT22;52327;42.622;23.316;2023-04-06T04:01:51;-1.03;76.87
65637;DHT22;52327;42.622;23.316;2023-04-06T04:04:16;-0.99;77.49
65637;DHT22;52327;42.622;23.316;2023-04-06T04:06:41;-0.89;76.82
65637;DHT22;52327;42.622;23.316;2023-04-06T04:09:07;-0.86;77.98
65637;DHT22;52327;42.622;23.316;2023-04-06T04:11:32;-0.83;77.57
65637;DHT22;52327;42.622;23.316;2023-04-06T04:13:58;-0.70;76.80
65637;DHT22;52327;42.622;23.316;2023-04-06T04:16:23;-0.66;77.02
65637;DHT22;52327;42.622;23.316;2023-04-06T04:18:49;-0.59;75.04
65637;DHT22;52327;42.622;23.316;2023-04-06T04:21:14;-0.64;76.37
65637;DHT22;52327;42.622;23.316;2023-04-06T04:23:40;-0.66;76.57
65637;DHT22;52327;42.622;23.316;2023-04-06T04:26:05;-0.64;75.94
65637;DHT22;52327;42.622;23.316;2023-04-06T04:28:31;-0.51;74.95
65637;DHT22;52327;42.622;23.316;2023-04-06T04:30:56;-0.38;74.91
65637;DHT22;52327;42.622;23.316;2023-04-06T04:33:22;-0.24;75.32
65637;DHT22;52327;42.622;23.316;2023-04-06T04:35:48;-0.21;74.51
65637;DHT22;52327;42.622;23.316;2023-04-06T04:38:13;-0.17;74.61
65637;DHT22;52327;42.622;23.316;2023-04-06T04:40:38;-0.13;74.77
65637;DHT22;52327;42.622;23.316;2023-04-06T04:43:04;-0.01;75.03
65637;DHT22;52327;42.622;23.316;2023-04-06T04:45:31;-0.04;74.16
65637;DHT22;52327;42.622;23.316;2023-04-06T04:47:56;-0.14;73.85
65637;DHT22;52327;42.622;23.316;2023-04-06T04:50:22;-0.22;74.16
65637;DHT22;52327;42.622;23.316;2023-04-06T04:52:47;-0.25;74.80
65637;DHT22;52327;42.622;23.316;2023-04-06T04:55:13;-0.35;74.73
65637;DHT22;52327;42.622;23.316;2023-04-06T04:57:38;-0.37;74.32
65637;DHT22;52327;42.622;23.316;2023-04-06T05:00:04;-0.41;74.02
65637;DHT22;52327;42.622;23.316;2023-04-06T05:02:30;-0.32;73.57
65637;DHT22;52327;42.622;23.316;2023-04-06T05:04:55;-0.27;73.45
65637;DHT22;52327;42.622;23.316;2023-04-06T05:07:21;-0.24;72.82
65637;DHT22;52327;42.622;23.316;2023-04-06T05:09:46;-0.17;73.84
65637;DHT22;52327;42.622;23.316;2023-04-06T05:12:12;-0.11;72.30
65637;DHT22;52327;42.622;23.316;2023-04-06T05:14:38;-0.11;71.67
65637;DHT22;52327;42.622;23.316;2023-04-06T05:17:03;-0.13;71.94
65637;DHT22;52327;42.622;23.316;2023-04-06T05:19:29;-0.07;71.92
65637;DHT22;52327;42.622;23.316;2023-04-06T05:21:55;0.02;71.81
65637;DHT22;52327;42.622;23.316;2023-04-06T05:24:20;0.14;71.22
65637;DHT22;52327;42.622;23.316;2023-04-06T05:26:46;0.28;72.03
65637;DHT22;52327;42.622;23.316;2023-04-06T05:29:11;0.33;71.82
65637;DHT22;52327;42.622;23.316;2023-04-06T05:31:37;0.41;70.99
65637;DHT22;52327;42.622;23.316;2023-04-06T05:34:03;0.53;71.52
65637;DHT22;52327;42.622;23.316;2023-04-06T05:36:28;0.37;71.64
65637;DHT22;52327;42.622;23.316;2023-04-06T05:38:53;0.65;71.76
65637;DHT22;52327;42.622;23.316;2023-04-06T05:41:20;0.69;70.53
65637;DHT22;52327;42.622;23.316;2023-04-06T05:43:45;0.67;70.90
65637;DHT22;52327;42.622;23.316;2023-04-06T05:46:11;0.76;70.83
65637;DHT22;52327;42.622;23.316;2023-04-06T05:48:36;0.51;71.07
65637;DHT22;52327;42.622;23.316;2023-04-06T05:51:02;0.55;71.88
65637;DHT22;52327;42.622;23.316;2023-04-06T05:53:31;0.68;71.20
65637;DHT22;52327;42.622;23.316;2023-04-06T05:55:56;0.75;71.16
65637;DHT22;52327;42.622;23.316;2023-04-06T05:58:22;0.61;69.94
65637;DHT22;52327;42.622;23.316;2023-04-06T06:00:47;0.79;71.00
65637;DHT22;52327;42.622;23.316;2023-04-06T06:03:13;0.91;71.27
65637;DHT22;52327;42.622;23.316;2023-04-06T06:05:38;0.92;71.18
65637;DHT22;52327;42.622;23.316;2023-04-06T06:08:04;0.85;71.00
65637;DHT22;52327;42.622;23.316;2023-04-06T06:10:29;0.95;71.01
65637;DHT22;52327;42.622;23.316;2023-04-06T06:12:55;0.99;70.54
65637;DHT22;52327;42.622;23.316;2023-04-06T06:15:20;0.98;70.48
65637;DHT22;52327;42.622;23.316;2023-04-06T06:17:46;1.08;69.89
65637;DHT22;52327;42.622;23.316;2023-04-06T06:20:12;1.19;69.97
65637;DHT22;52327;42.622;23.316;2023-04-06T06:22:37;1.16;69.31
65637;DHT22;52327;42.622;23.316;2023-04-06T06:25:03;1.39;69.50
65637;DHT22;52327;42.622;23.316;2023-04-06T06:27:28;1.39;69.33
65637;DHT22;52327;42.622;23.316;2023-04-06T06:29:54;1.32;68.90
65637;DHT22;52327;42.622;23.316;2023-04-06T06:32:20;1.40;68.63
65637;DHT22;52327;42.622;23.316;2023-04-06T06:34:45;1.60;68.83
65637;DHT22;52327;42.622;23.316;2023-04-06T06:37:11;1.67;68.64
65637;DHT22;52327;42.622;23.316;2023-04-06T06:39:36;1.63;68.28
65637;DHT22;52327;42.622;23.316;2023-04-06T06:42:02;1.70;68.28
65637;DHT22;52327;42.622;23.316;2023-04-06T06:44:27;1.70;67.49
65637;DHT22;52327;42.622;23.316;2023-04-06T06:46:53;1.61;67.93
65637;DHT22;52327;42.622;23.316;2023-04-06T06:49:19;1.27;66.98
65637;DHT22;52327;42.622;23.316;2023-04-06T06:51:44;1.43;68.29
65637;DHT22;52327;42.622;23.316;2023-04-06T06:54:12;1.51;68.19
65637;DHT22;52327;42.622;23.316;2023-04-06T06:56:38;1.67;67.78
65637;DHT22;52327;42.622;23.316;2023-04-06T06:59:04;1.50;67.97
65637;DHT22;52327;42.622;23.316;2023-04-06T07:01:32;1.40;67.60
65637;DHT22;52327;42.622;23.316;2023-04-06T07:03:57;1.40;68.12
65637;DHT22;52327;42.622;23.316;2023-04-06T07:06:23;1.39;68.77
65637;DHT22;52327;42.622;23.316;2023-04-06T07:08:48;1.51;68.41
65637;DHT22;52327;42.622;23.316;2023-04-06T07:11:14;1.61;69.70
65637;DHT22;52327;42.622;23.316;2023-04-06T07:13:39;1.46;67.92
65637;DHT22;52327;42.622;23.316;2023-04-06T07:16:05;1.44;68.73
65637;DHT22;52327;42.622;23.316;2023-04-06T07:18:30;1.63;69.10
65637;DHT22;52327;42.622;23.316;2023-04-06T07:20:56;1.58;66.73
65637;DHT22;52327;42.622;23.316;2023-04-06T07:23:21;1.58;67.29
65637;DHT22;52327;42.622;23.316;2023-04-06T07:25:47;1.68;67.93
65637;DHT22;52327;42.622;23.316;2023-04-06T07:28:12;1.74;67.86
65637;DHT22;52327;42.622;23.316;2023-04-06T07:30:38;1.70;67.85
65637;DHT22;52327;42.622;23.316;2023-04-06T07:33:03;1.67;67.11
65637;DHT22;52327;42.622;23.316;2023-04-06T07:35:30;1.63;66.07
65637;DHT22;52327;42.622;23.316;2023-04-06T07:37:56;1.78;66.85
65637;DHT22;52327;42.622;23.316;2023-04-06T07:40:22;1.87;67.14
65637;DHT22;52327;42.622;23.316;2023-04-06T07:42:47;2.04;67.10
65637;DHT22;52327;42.622;23.316;2023-04-06T07:45:14;2.04;65.91
65637;DHT22;52327;42.622;23.316;2023-04-06T07:47:41;2.12;64.68
65637;DHT22;52327;42.622;23.316;2023-04-06T07:50:06;2.26;66.76
65637;DHT22;52327;42.622;23.316;2023-04-06T07:52:32;2.46;63.14
65637;DHT22;52327;42.622;23.316;2023-04-06T07:54:58;2.50;64.43
65637;DHT22;52327;42.622;23.316;2023-04-06T07:57:23;2.26;64.53
65637;DHT22;52327;42.622;23.316;2023-04-06T07:59:49;2.52;66.19
65637;DHT22;52327;42.622;23.316;2023-04-06T08:02:15;2.54;64.82
65637;DHT22;52327;42.622;23.316;2023-04-06T08:04:40;2.62;64.45
65637;DHT22;52327;42.622;23.316;2023-04-06T08:07:05;2.66;63.63
65637;DHT22;52327;42.622;23.316;2023-04-06T08:09:32;2.57;63.54
65637;DHT22;52327;42.622;23.316;2023-04-06T08:11:57;2.49;63.65
65637;DHT22;52327;42.622;23.316;2023-04-06T08:14:23;2.57;62.84
65637;DHT22;52327;42.622;23.316;2023-04-06T08:16:48;2.56;63.89
65637;DHT22;52327;42.622;23.316;2023-04-06T08:19:13;2.62;62.64
65637;DHT22;52327;42.622;23.316;2023-04-06T08:21:42;2.21;63.31
65637;DHT22;52327;42.622;23.316;2023-04-06T08:24:08;2.50;64.16
65637;DHT22;52327;42.622;23.316;2023-04-06T08:26:34;2.83;63.96
65637;DHT22;52327;42.622;23.316;2023-04-06T08:28:59;2.93;62.75
65637;DHT22;52327;42.622;23.316;2023-04-06T08:31:25;2.57;62.35
65637;DHT22;52327;42.622;23.316;2023-04-06T08:33:51;2.67;63.44
65637;DHT22;52327;42.622;23.316;2023-04-06T08:36:17;2.54;62.54
65637;DHT22;52327;42.622;23.316;2023-04-06T08:38:47;2.69;63.53
65637;DHT22;52327;42.622;23.316;2023-04-06T08:41:14;2.49;64.25
65637;DHT22;52327;42.622;23.316;2023-04-06T08:43:54;2.48;65.54
65637;DHT22;52327;42.622;23.316;2023-04-06T08:46:21;2.72;64.50
65637;DHT22;52327;42.622;23.316;2023-04-06T08:48:47;2.93;64.17
65637;DHT22;52327;42.622;23.316;2023-04-06T08:51:15;2.99;63.59
65637;DHT22;52327;42.622;23.316;2023-04-06T08:53:40;3.34;63.43
65637;DHT22;52327;42.622;23.316;2023-04-06T08:56:07;3.36;64.06
65637;DHT22;52327;42.622;23.316;2023-04-06T08:58:37;3.24;61.95
65637;DHT22;52327;42.622;23.316;2023-04-06T09:01:07;2.96;61.52
65637;DHT22;52327;42.622;23.316;2023-04-06T09:03:35;2.94;62.43
65637;DHT22;52327;42.622;23.316;2023-04-06T09:06:02;2.97;62.91
65637;DHT22;52327;42.622;23.316;2023-04-06T09:08:29;3.28;61.70
65637;DHT22;52327;42.622;23.316;2023-04-06T09:10:55;3.21;61.47
65637;DHT22;52327;42.622;23.316;2023-04-06T09:13:20;3.39;62.11
65637;DHT22;52327;42.622;23.316;2023-04-06T09:15:46;3.27;60.85
65637;DHT22;52327;42.622;23.316;2023-04-06T09:18:11;3.30;61.50
65637;DHT22;52327;42.622;23.316;2023-04-06T09:20:37;3.41;60.74
65637;DHT22;52327;42.622;23.316;2023-04-06T09:23:02;3.44;61.82
65637;DHT22;52327;42.622;23.316;2023-04-06T09:25:28;3.62;60.26
65637;DHT22;52327;42.622;23.316;2023-04-06T09:28:04;3.65;60.72
65637;DHT22;52327;42.622;23.316;2023-04-06T09:30:30;3.45;60.59
65637;DHT22;52327;42.622;23.316;2023-04-06T09:32:57;3.48;60.79
65637;DHT22;52327;42.622;23.316;2023-04-06T09:35:24;3.23;61.03
65637;DHT22;52327;42.622;23.316;2023-04-06T09:37:52;3.24;61.27
65637;DHT22;52327;42.622;23.316;2023-04-06T09:40:18;3.27;60.76
65637;DHT22;52327;42.622;23.316;2023-04-06T09:42:45;3.27;62.29
65637;DHT22;52327;42.622;23.316;2023-04-06T09:45:12;3.38;62.01
65637;DHT22;52327;42.622;23.316;2023-04-06T09:47:39;3.27;61.30
65637;DHT22;52327;42.622;23.316;2023-04-06T09:50:07;3.20;61.39
65637;DHT22;52327;42.622;23.316;2023-04-06T09:52:39;3.17;61.71
65637;DHT22;52327;42.622;23.316;2023-04-06T09:55:06;3.20;61.32
65637;DHT22;52327;42.622;23.316;2023-04-06T09:57:45;3.54;62.09
65637;DHT22;52327;42.622;23.316;2023-04-06T10:00:17;3.45;60.79
65637;DHT22;52327;42.622;23.316;2023-04-06T10:06:05;3.38;62.59
65637;DHT22;52327;42.622;23.316;2023-04-06T10:08:33;3.68;62.27
65637;DHT22;52327;42.622;23.316;2023-04-06T10:11:00;3.66;61.11
65637;DHT22;52327;42.622;23.316;2023-04-06T10:13:26;3.68;60.96
65637;DHT22;52327;42.622;23.316;2023-04-06T10:15:52;3.61;60.23
65637;DHT22;52327;42.622;23.316;2023-04-06T10:18:18;3.51;60.16
65637;DHT22;52327;42.622;23.316;2023-04-06T10:20:51;3.72;59.60
65637;DHT22;52327;42.622;23.316;2023-04-06T10:23:34;4.29;59.25
65637;DHT22;52327;42.622;23.316;2023-04-06T10:26:01;4.09;57.15
65637;DHT22;52327;42.622;23.316;2023-04-06T10:28:35;4.14;57.36
65637;DHT22;52327;42.622;23.316;2023-04-06T10:31:04;4.43;57.79
65637;DHT22;52327;42.622;23.316;2023-04-06T10:33:30;4.23;57.81
65637;DHT22;52327;42.622;23.316;2023-04-06T10:35:56;4.13;58.50
65637;DHT22;52327;42.622;23.316;2023-04-06T10:38:33;4.18;58.41
65637;DHT22;52327;42.622;23.316;2023-04-06T10:41:07;4.26;59.12
65637;DHT22;52327;42.622;23.316;2023-04-06T10:43:34;4.23;57.75
65637;DHT22;52327;42.622;23.316;2023-04-06T10:46:04;4.41;57.84
65637;DHT22;52327;42.622;23.316;2023-04-06T10:48:56;4.00;57.78
65637;DHT22;52327;42.622;23.316;2023-04-06T10:51:28;4.40;58.49
65637;DHT22;52327;42.622;23.316;2023-04-06T10:53:54;4.64;57.72
65637;DHT22;52327;42.622;23.316;2023-04-06T10:56:22;4.71;57.82
65637;DHT22;52327;42.622;23.316;2023-04-06T10:58:50;4.43;57.84
65637;DHT22;52327;42.622;23.316;2023-04-06T11:01:17;4.27;58.99
65637;DHT22;52327;42.622;23.316;2023-04-06T11:03:47;4.75;60.31
65637;DHT22;52327;42.622;23.316;2023-04-06T11:08:44;4.54;59.08
65637;DHT22;52327;42.622;23.316;2023-04-06T11:11:15;4.87;58.87
65637;DHT22;52327;42.622;23.316;2023-04-06T11:13:43;4.82;58.48
65637;DHT22;52327;42.622;23.316;2023-04-06T11:16:14;5.13;57.79
65637;DHT22;52327;42.622;23.316;2023-04-06T11:21:18;5.26;56.02
65637;DHT22;52327;42.622;23.316;2023-04-06T11:23:43;5.40;55.31
65637;DHT22;52327;42.622;23.316;2023-04-06T11:26:12;5.51;54.29
65637;DHT22;52327;42.622;23.316;2023-04-06T11:28:40;5.05;55.20
65637;DHT22;52327;42.622;23.316;2023-04-06T11:31:06;5.25;56.32
65637;DHT22;52327;42.622;23.316;2023-04-06T11:33:36;5.19;56.26
65637;DHT22;52327;42.622;23.316;2023-04-06T11:36:02;5.13;56.03
65637;DHT22;52327;42.622;23.316;2023-04-06T11:38:28;5.25;55.29
65637;DHT22;52327;42.622;23.316;2023-04-06T11:40:54;5.22;56.20
65637;DHT22;52327;42.622;23.316;2023-04-06T11:43:27;5.06;57.20
65637;DHT22;52327;42.622;23.316;2023-04-06T11:45:59;4.89;57.78
65637;DHT22;52327;42.622;23.316;2023-04-06T11:48:26;4.87;57.22
65637;DHT22;52327;42.622;23.316;2023-04-06T11:50:56;5.19;56.24
65637;DHT22;52327;42.622;23.316;2023-04-06T11:53:22;5.44;56.36
65637;DHT22;52327;42.622;23.316;2023-04-06T11:55:47;5.95;55.02
65637;DHT22;52327;42.622;23.316;2023-04-06T11:58:13;5.97;53.61
65637;DHT22;52327;42.622;23.316;2023-04-06T12:00:38;6.17;52.50
65637;DHT22;52327;42.622;23.316;2023-04-06T12:03:04;6.01;53.25
65637;DHT22;52327;42.622;23.316;2023-04-06T12:05:29;6.12;53.76
65637;DHT22;52327;42.622;23.316;2023-04-06T12:07:55;6.07;52.22
65637;DHT22;52327;42.622;23.316;2023-04-06T12:10:20;5.78;53.02
65637;DHT22;52327;42.622;23.316;2023-04-06T12:12:46;5.53;54.87
65637;DHT22;52327;42.622;23.316;2023-04-06T12:15:12;5.54;56.61
65637;DHT22;52327;42.622;23.316;2023-04-06T12:17:37;5.50;55.37
65637;DHT22;52327;42.622;23.316;2023-04-06T12:20:03;5.60;55.62
65637;DHT22;52327;42.622;23.316;2023-04-06T12:22:28;5.40;53.88
65637;DHT22;52327;42.622;23.316;2023-04-06T12:24:54;5.29;56.56
65637;DHT22;52327;42.622;23.316;2023-04-06T12:27:20;5.09;55.23
65637;DHT22;52327;42.622;23.316;2023-04-06T12:29:45;4.95;55.78
65637;DHT22;52327;42.622;23.316;2023-04-06T12:32:11;4.88;55.66
65637;DHT22;52327;42.622;23.316;2023-04-06T12:34:37;5.38;56.57
65637;DHT22;52327;42.622;23.316;2023-04-06T12:37:03;5.25;55.83
65637;DHT22;52327;42.622;23.316;2023-04-06T12:39:28;5.13;55.83
65637;DHT22;52327;42.622;23.316;2023-04-06T12:41:54;5.30;55.87
65637;DHT22;52327;42.622;23.316;2023-04-06T12:44:20;5.26;55.62
65637;DHT22;52327;42.622;23.316;2023-04-06T12:46:45;4.84;56.43
65637;DHT22;52327;42.622;23.316;2023-04-06T12:49:11;4.54;55.95
65637;DHT22;52327;42.622;23.316;2023-04-06T12:51:37;4.40;56.81
65637;DHT22;52327;42.622;23.316;2023-04-06T12:54:02;4.41;56.92
65637;DHT22;52327;42.622;23.316;2023-04-06T12:56:28;4.38;57.42
65637;DHT22;52327;42.622;23.316;2023-04-06T12:58:53;4.48;56.24
65637;DHT22;52327;42.622;23.316;2023-04-06T13:01:19;4.51;57.94
65637;DHT22;52327;42.622;23.316;2023-04-06T13:03:45;4.50;57.09
65637;DHT22;52327;42.622;23.316;2023-04-06T13:06:10;4.47;57.29
65637;DHT22;52327;42.622;23.316;2023-04-06T13:08:37;4.24;58.67
65637;DHT22;52327;42.622;23.316;2023-04-06T13:11:03;4.46;57.11
65637;DHT22;52327;42.622;23.316;2023-04-06T13:13:29;4.56;57.04
65637;DHT22;52327;42.622;23.316;2023-04-06T13:16:02;4.57;56.77
65637;DHT22;52327;42.622;23.316;2023-04-06T13:18:29;4.61;55.22
65637;DHT22;52327;42.622;23.316;2023-04-06T13:20:56;4.58;55.85
65637;DHT22;52327;42.622;23.316;2023-04-06T13:23:22;4.27;56.29
65637;DHT22;52327;42.622;23.316;2023-04-06T13:25:48;4.16;56.44
65637;DHT22;52327;42.622;23.316;2023-04-06T13:28:21;4.16;56.26
65637;DHT22;52327;42.622;23.316;2023-04-06T13:30:48;4.16;55.91
65637;DHT22;52327;42.622;23.316;2023-04-06T13:33:14;3.87;57.13
65637;DHT22;52327;42.622;23.316;2023-04-06T13:35:39;4.03;58.01
65637;DHT22;52327;42.622;23.316;2023-04-06T13:38:05;4.10;57.65
65637;DHT22;52327;42.622;23.316;2023-04-06T13:40:30;4.20;57.72
65637;DHT22;52327;42.622;23.316;2023-04-06T13:42:56;3.93;57.67
65637;DHT22;52327;42.622;23.316;2023-04-06T13:45:21;4.00;58.32
65637;DHT22;52327;42.622;23.316;2023-04-06T13:47:47;4.06;57.98
65637;DHT22;52327;42.622;23.316;2023-04-06T13:50:12;4.05;58.33
65637;DHT22;52327;42.622;23.316;2023-04-06T13:52:38;4.20;57.73
65637;DHT22;52327;42.622;23.316;2023-04-06T13:55:03;4.41;56.58
65637;DHT22;52327;42.622;23.316;2023-04-06T13:57:29;4.44;56.46
65637;DHT22;52327;42.622;23.316;2023-04-06T13:59:55;4.47;55.51
65637;DHT22;52327;42.622;23.316;2023-04-06T14:02:20;4.40;57.43
65637;DHT22;52327;42.622;23.316;2023-04-06T14:04:51;4.27;56.11
65637;DHT22;52327;42.622;23.316;2023-04-06T14:07:16;4.26;56.59
65637;DHT22;52327;42.622;23.316;2023-04-06T14:09:42;4.51;55.68
65637;DHT22;52327;42.622;23.316;2023-04-06T14:12:07;4.71;54.89
65637;DHT22;52327;42.622;23.316;2023-04-06T14:14:33;4.37;55.26
65637;DHT22;52327;42.622;23.316;2023-04-06T14:16:58;4.51;56.05
65637;DHT22;52327;42.622;23.316;2023-04-06T14:19:23;4.50;55.73
65637;DHT22;52327;42.622;23.316;2023-04-06T14:21:49;4.41;55.99
65637;DHT22;52327;42.622;23.316;2023-04-06T14:24:14;4.51;56.15
65637;DHT22;52327;42.622;23.316;2023-04-06T14:26:41;4.40;55.69
65637;DHT22;52327;42.622;23.316;2023-04-06T14:29:06;4.44;55.79
65637;DHT22;52327;42.622;23.316;2023-04-06T14:31:32;4.51;55.50
65637;DHT22;52327;42.622;23.316;2023-04-06T14:33:58;4.47;55.22
65637;DHT22;52327;42.622;23.316;2023-04-06T14:36:24;4.51;55.30
65637;DHT22;52327;42.622;23.316;2023-04-06T14:38:51;4.53;55.79
65637;DHT22;52327;42.622;23.316;2023-04-06T14:41:23;4.30;55.38
65637;DHT22;52327;42.622;23.316;2023-04-06T14:43:49;4.09;56.55
65637;DHT22;52327;42.622;23.316;2023-04-06T14:46:14;4.26;57.78
65637;DHT22;52327;42.622;23.316;2023-04-06T14:48:43;4.21;56.33
65637;DHT22;52327;42.622;23.316;2023-04-06T14:51:09;4.06;55.57
65637;DHT22;52327;42.622;23.316;2023-04-06T14:53:34;3.83;56.82
65637;DHT22;52327;42.622;23.316;2023-04-06T14:55:59;3.93;56.79
65637;DHT22;52327;42.622;23.316;2023-04-06T14:58:25;3.82;57.08
65637;DHT22;52327;42.622;23.316;2023-04-06T15:00:58;3.97;57.67
65637;DHT22;52327;42.622;23.316;2023-04-06T15:03:27;4.06;57.64
65637;DHT22;52327;42.622;23.316;2023-04-06T15:05:54;3.99;57.74
65637;DHT22;52327;42.622;23.316;2023-04-06T15:08:21;3.75;55.74
65637;DHT22;52327;42.622;23.316;2023-04-06T15:10:48;3.55;55.41
65637;DHT22;52327;42.622;23.316;2023-04-06T15:13:14;3.31;55.65
65637;DHT22;52327;42.622;23.316;2023-04-06T15:15:43;3.35;56.93
65637;DHT22;52327;42.622;23.316;2023-04-06T15:18:09;3.25;57.63
65637;DHT22;52327;42.622;23.316;2023-04-06T15:20:35;3.20;58.42
65637;DHT22;52327;42.622;23.316;2023-04-06T15:23:01;3.18;58.06
65637;DHT22;52327;42.622;23.316;2023-04-06T15:25:27;3.14;58.35
65637;DHT22;52327;42.622;23.316;2023-04-06T15:27:53;3.15;59.14